Rasht Airport

Airport
ICAO code: 
OIGG
IATA Code: 
RAS
Summary
ICAO Region: 
MID
Territory: 
Location: 
Rasht, Gilan Province
Serving: 
Rasht
Elevation: 
-40 ft
Coordinates: 
Aerial View: 
37° 19' 17.312" N, 49° 36' 58.735" E
Metar
Observation
OIGG 262000Z 00000KT CAVOK 24/22 Q1002
Station
Rasht
Date/Time
2022-06-26 20:00:00
Wind direction
Wind speed
00 kts
Lowest cloud amount
clouds and visibility OK
Temperature
24°C
Dew point
22°C
Humidity
88%
QNH
1002 hPa
Weather condition
n/a

Airport serving the city of Rasht in northern Iran.

Climatology

Mediterranean climate (Köppen climate classification Csa).

Runways

Designator Length Width Surface Rops
9/27 2917 45 ASP No/No
Airport map: 
Aerial View: 

SKYbrary Partners:

Safety knowledge contributed by: